sensor_id;sensor_type;location;lat;lon;timestamp;P1;durP1;ratioP1;P2;durP2;ratioP2
58354;SDS011;44160;49.080;19.302;2022-09-12T00:01:20;3.25;;;2.17;;
58354;SDS011;44160;49.080;19.302;2022-09-12T00:03:46;2.42;;;1.92;;
58354;SDS011;44160;49.080;19.302;2022-09-12T00:06:29;3.30;;;2.30;;
58354;SDS011;44160;49.080;19.302;2022-09-12T00:08:59;3.83;;;2.30;;
58354;SDS011;44160;49.080;19.302;2022-09-12T00:11:26;2.63;;;2.17;;
58354;SDS011;44160;49.080;19.302;2022-09-12T00:13:56;2.70;;;2.25;;
58354;SDS011;44160;49.080;19.302;2022-09-12T00:16:23;5.93;;;2.60;;
58354;SDS011;44160;49.080;19.302;2022-09-12T00:18:50;2.65;;;1.92;;
58354;SDS011;44160;49.080;19.302;2022-09-12T00:21:17;2.95;;;2.47;;
58354;SDS011;44160;49.080;19.302;2022-09-12T00:23:43;3.17;;;2.30;;
58354;SDS011;44160;49.080;19.302;2022-09-12T00:26:09;3.58;;;2.28;;
58354;SDS011;44160;49.080;19.302;2022-09-12T00:28:36;3.80;;;2.53;;
58354;SDS011;44160;49.080;19.302;2022-09-12T00:31:07;2.70;;;2.15;;
58354;SDS011;44160;49.080;19.302;2022-09-12T00:33:34;3.22;;;2.42;;
58354;SDS011;44160;49.080;19.302;2022-09-12T00:36:11;3.72;;;2.70;;
58354;SDS011;44160;49.080;19.302;2022-09-12T00:38:38;3.63;;;2.70;;
58354;SDS011;44160;49.080;19.302;2022-09-12T00:41:16;5.95;;;2.75;;
58354;SDS011;44160;49.080;19.302;2022-09-12T00:43:44;6.45;;;2.60;;
58354;SDS011;44160;49.080;19.302;2022-09-12T00:46:28;3.70;;;2.75;;
58354;SDS011;44160;49.080;19.302;2022-09-12T00:48:59;3.50;;;2.80;;
58354;SDS011;44160;49.080;19.302;2022-09-12T00:51:29;4.10;;;2.63;;
58354;SDS011;44160;49.080;19.302;2022-09-12T00:53:56;3.25;;;2.30;;
58354;SDS011;44160;49.080;19.302;2022-09-12T00:56:23;3.67;;;2.58;;
58354;SDS011;44160;49.080;19.302;2022-09-12T00:58:51;2.83;;;2.33;;
58354;SDS011;44160;49.080;19.302;2022-09-12T01:01:17;4.55;;;2.53;;
58354;SDS011;44160;49.080;19.302;2022-09-12T01:03:44;3.42;;;2.70;;
58354;SDS011;44160;49.080;19.302;2022-09-12T01:06:15;3.75;;;2.30;;
58354;SDS011;44160;49.080;19.302;2022-09-12T01:08:43;5.10;;;2.63;;
58354;SDS011;44160;49.080;19.302;2022-09-12T01:11:10;6.22;;;2.30;;
58354;SDS011;44160;49.080;19.302;2022-09-12T01:13:37;3.72;;;2.55;;
58354;SDS011;44160;49.080;19.302;2022-09-12T01:16:03;2.90;;;2.47;;
58354;SDS011;44160;49.080;19.302;2022-09-12T01:31:56;3.63;;;2.70;;
58354;SDS011;44160;49.080;19.302;2022-09-12T01:34:17;4.40;;;2.83;;
58354;SDS011;44160;49.080;19.302;2022-09-12T01:41:54;4.68;;;2.30;;
58354;SDS011;44160;49.080;19.302;2022-09-12T01:47:13;3.13;;;2.83;;
58354;SDS011;44160;49.080;19.302;2022-09-12T01:49:45;3.13;;;2.45;;
58354;SDS011;44160;49.080;19.302;2022-09-12T01:54:42;3.75;;;3.00;;
58354;SDS011;44160;49.080;19.302;2022-09-12T01:57:12;3.80;;;3.17;;
58354;SDS011;44160;49.080;19.302;2022-09-12T01:59:44;3.13;;;2.67;;
58354;SDS011;44160;49.080;19.302;2022-09-12T02:02:20;3.42;;;2.78;;
58354;SDS011;44160;49.080;19.302;2022-09-12T02:04:52;3.70;;;2.78;;
58354;SDS011;44160;49.080;19.302;2022-09-12T02:07:22;2.92;;;2.45;;
58354;SDS011;44160;49.080;19.302;2022-09-12T02:09:59;4.70;;;2.90;;
58354;SDS011;44160;49.080;19.302;2022-09-12T02:12:28;3.75;;;2.95;;
58354;SDS011;44160;49.080;19.302;2022-09-12T02:14:59;3.28;;;2.60;;
58354;SDS011;44160;49.080;19.302;2022-09-12T02:17:26;3.80;;;2.67;;
58354;SDS011;44160;49.080;19.302;2022-09-12T02:19:56;4.07;;;2.90;;
58354;SDS011;44160;49.080;19.302;2022-09-12T02:22:24;3.03;;;2.58;;
58354;SDS011;44160;49.080;19.302;2022-09-12T02:24:51;3.08;;;2.50;;
58354;SDS011;44160;49.080;19.302;2022-09-12T02:27:27;4.22;;;3.28;;
58354;SDS011;44160;49.080;19.302;2022-09-12T02:29:55;4.68;;;3.00;;
58354;SDS011;44160;49.080;19.302;2022-09-12T02:37:24;5.95;;;3.65;;
58354;SDS011;44160;49.080;19.302;2022-09-12T02:39:54;5.22;;;3.88;;
58354;SDS011;44160;49.080;19.302;2022-09-12T02:42:21;3.83;;;3.28;;
58354;SDS011;44160;49.080;19.302;2022-09-12T02:44:48;5.03;;;3.63;;
58354;SDS011;44160;49.080;19.302;2022-09-12T02:47:20;4.15;;;3.10;;
58354;SDS011;44160;49.080;19.302;2022-09-12T02:49:48;7.13;;;3.58;;
58354;SDS011;44160;49.080;19.302;2022-09-12T02:52:14;6.03;;;3.67;;
58354;SDS011;44160;49.080;19.302;2022-09-12T02:54:40;5.97;;;3.75;;
58354;SDS011;44160;49.080;19.302;2022-09-12T02:57:14;5.80;;;3.80;;
58354;SDS011;44160;49.080;19.302;2022-09-12T02:59:41;6.03;;;4.32;;
58354;SDS011;44160;49.080;19.302;2022-09-12T03:02:14;5.43;;;3.38;;
58354;SDS011;44160;49.080;19.302;2022-09-12T03:30:13;4.25;;;3.47;;
58354;SDS011;44160;49.080;19.302;2022-09-12T03:32:40;3.58;;;3.20;;
58354;SDS011;44160;49.080;19.302;2022-09-12T03:35:07;5.00;;;3.03;;
58354;SDS011;44160;49.080;19.302;2022-09-12T03:37:33;5.55;;;2.88;;
58354;SDS011;44160;49.080;19.302;2022-09-12T03:39:59;6.90;;;3.28;;
58354;SDS011;44160;49.080;19.302;2022-09-12T03:42:25;4.35;;;3.35;;
58354;SDS011;44160;49.080;19.302;2022-09-12T03:44:51;4.22;;;3.13;;
58354;SDS011;44160;49.080;19.302;2022-09-12T03:47:17;4.85;;;3.17;;
58354;SDS011;44160;49.080;19.302;2022-09-12T03:49:43;8.38;;;2.92;;
58354;SDS011;44160;49.080;19.302;2022-09-12T03:52:10;5.70;;;4.43;;
58354;SDS011;44160;49.080;19.302;2022-09-12T03:54:36;6.95;;;3.20;;
58354;SDS011;44160;49.080;19.302;2022-09-12T03:57:03;4.88;;;3.90;;
58354;SDS011;44160;49.080;19.302;2022-09-12T03:59:29;5.82;;;3.30;;
58354;SDS011;44160;49.080;19.302;2022-09-12T04:01:56;5.22;;;2.97;;
58354;SDS011;44160;49.080;19.302;2022-09-12T04:04:22;4.68;;;3.63;;
58354;SDS011;44160;49.080;19.302;2022-09-12T04:06:48;4.43;;;3.30;;
58354;SDS011;44160;49.080;19.302;2022-09-12T04:09:14;4.72;;;3.22;;
58354;SDS011;44160;49.080;19.302;2022-09-12T04:11:40;4.80;;;3.28;;
58354;SDS011;44160;49.080;19.302;2022-09-12T04:14:06;4.72;;;3.28;;
58354;SDS011;44160;49.080;19.302;2022-09-12T04:16:32;6.63;;;3.53;;
58354;SDS011;44160;49.080;19.302;2022-09-12T04:18:58;5.63;;;3.28;;
58354;SDS011;44160;49.080;19.302;2022-09-12T04:21:24;4.22;;;3.60;;
58354;SDS011;44160;49.080;19.302;2022-09-12T04:23:50;4.05;;;3.22;;
58354;SDS011;44160;49.080;19.302;2022-09-12T04:26:17;6.18;;;3.22;;
58354;SDS011;44160;49.080;19.302;2022-09-12T04:28:43;6.85;;;3.70;;
58354;SDS011;44160;49.080;19.302;2022-09-12T04:31:11;9.25;;;4.03;;
58354;SDS011;44160;49.080;19.302;2022-09-12T04:33:39;5.15;;;3.80;;
58354;SDS011;44160;49.080;19.302;2022-09-12T04:36:06;6.40;;;3.80;;
58354;SDS011;44160;49.080;19.302;2022-09-12T04:38:33;6.90;;;3.80;;
58354;SDS011;44160;49.080;19.302;2022-09-12T04:41:00;4.13;;;3.72;;
58354;SDS011;44160;49.080;19.302;2022-09-12T04:43:26;5.72;;;4.45;;
58354;SDS011;44160;49.080;19.302;2022-09-12T04:45:52;8.32;;;5.07;;
58354;SDS011;44160;49.080;19.302;2022-09-12T04:48:18;5.35;;;4.30;;
58354;SDS011;44160;49.080;19.302;2022-09-12T04:50:44;5.93;;;4.63;;
58354;SDS011;44160;49.080;19.302;2022-09-12T04:53:10;9.18;;;4.00;;
58354;SDS011;44160;49.080;19.302;2022-09-12T04:55:36;4.32;;;3.85;;
58354;SDS011;44160;49.080;19.302;2022-09-12T04:58:02;6.38;;;3.78;;
58354;SDS011;44160;49.080;19.302;2022-09-12T05:00:28;5.63;;;4.15;;
58354;SDS011;44160;49.080;19.302;2022-09-12T05:02:55;12.05;;;5.53;;
58354;SDS011;44160;49.080;19.302;2022-09-12T05:05:21;8.07;;;5.30;;
58354;SDS011;44160;49.080;19.302;2022-09-12T05:07:47;9.27;;;4.90;;
58354;SDS011;44160;49.080;19.302;2022-09-12T05:10:13;4.65;;;4.18;;
58354;SDS011;44160;49.080;19.302;2022-09-12T05:12:39;6.00;;;4.43;;
58354;SDS011;44160;49.080;19.302;2022-09-12T05:15:05;12.88;;;5.40;;
58354;SDS011;44160;49.080;19.302;2022-09-12T05:17:31;6.60;;;4.10;;
58354;SDS011;44160;49.080;19.302;2022-09-12T05:19:57;6.82;;;3.53;;
58354;SDS011;44160;49.080;19.302;2022-09-12T05:22:24;4.72;;;3.60;;
58354;SDS011;44160;49.080;19.302;2022-09-12T05:24:50;4.63;;;3.78;;
58354;SDS011;44160;49.080;19.302;2022-09-12T05:27:16;5.38;;;3.47;;
58354;SDS011;44160;49.080;19.302;2022-09-12T05:29:42;4.78;;;3.60;;
58354;SDS011;44160;49.080;19.302;2022-09-12T05:32:08;5.65;;;3.67;;
58354;SDS011;44160;49.080;19.302;2022-09-12T05:34:36;15.02;;;4.75;;
58354;SDS011;44160;49.080;19.302;2022-09-12T05:37:02;7.18;;;3.53;;
58354;SDS011;44160;49.080;19.302;2022-09-12T05:39:28;6.10;;;4.75;;
58354;SDS011;44160;49.080;19.302;2022-09-12T05:41:54;5.75;;;4.32;;
58354;SDS011;44160;49.080;19.302;2022-09-12T05:44:20;4.88;;;3.88;;
58354;SDS011;44160;49.080;19.302;2022-09-12T05:46:46;8.73;;;3.75;;
58354;SDS011;44160;49.080;19.302;2022-09-12T05:49:15;5.10;;;3.75;;
58354;SDS011;44160;49.080;19.302;2022-09-12T05:51:42;10.10;;;3.47;;
58354;SDS011;44160;49.080;19.302;2022-09-12T05:54:10;4.03;;;3.03;;
58354;SDS011;44160;49.080;19.302;2022-09-12T05:56:37;4.20;;;3.75;;
58354;SDS011;44160;49.080;19.302;2022-09-12T05:59:04;5.78;;;3.40;;
58354;SDS011;44160;49.080;19.302;2022-09-12T06:01:31;4.65;;;3.22;;
58354;SDS011;44160;49.080;19.302;2022-09-12T06:03:58;7.22;;;3.67;;
58354;SDS011;44160;49.080;19.302;2022-09-12T06:06:25;5.82;;;2.90;;
58354;SDS011;44160;49.080;19.302;2022-09-12T06:08:54;5.25;;;3.42;;
58354;SDS011;44160;49.080;19.302;2022-09-12T06:11:22;7.50;;;3.70;;
58354;SDS011;44160;49.080;19.302;2022-09-12T06:13:49;4.47;;;3.78;;
58354;SDS011;44160;49.080;19.302;2022-09-12T06:16:19;4.40;;;3.13;;
58354;SDS011;44160;49.080;19.302;2022-09-12T06:18:59;3.85;;;2.75;;
58354;SDS011;44160;49.080;19.302;2022-09-12T06:21:25;5.70;;;2.88;;
58354;SDS011;44160;49.080;19.302;2022-09-12T06:23:55;2.75;;;2.20;;
58354;SDS011;44160;49.080;19.302;2022-09-12T06:26:26;2.77;;;2.00;;
58354;SDS011;44160;49.080;19.302;2022-09-12T06:28:55;3.10;;;2.28;;
58354;SDS011;44160;49.080;19.302;2022-09-12T06:31:24;2.75;;;1.85;;
58354;SDS011;44160;49.080;19.302;2022-09-12T06:33:50;4.10;;;1.90;;
58354;SDS011;44160;49.080;19.302;2022-09-12T06:39:08;2.43;;;1.97;;
58354;SDS011;44160;49.080;19.302;2022-09-12T06:41:37;2.80;;;2.00;;
58354;SDS011;44160;49.080;19.302;2022-09-12T06:44:06;3.42;;;1.80;;
58354;SDS011;44160;49.080;19.302;2022-09-12T06:46:32;2.17;;;1.70;;
58354;SDS011;44160;49.080;19.302;2022-09-12T06:48:59;2.97;;;1.80;;
58354;SDS011;44160;49.080;19.302;2022-09-12T06:51:26;2.88;;;2.05;;
58354;SDS011;44160;49.080;19.302;2022-09-12T06:53:58;5.68;;;2.20;;
58354;SDS011;44160;49.080;19.302;2022-09-12T06:56:30;2.40;;;1.88;;
58354;SDS011;44160;49.080;19.302;2022-09-12T06:58:59;2.15;;;1.70;;
58354;SDS011;44160;49.080;19.302;2022-09-12T07:01:31;3.13;;;1.98;;
58354;SDS011;44160;49.080;19.302;2022-09-12T07:03:58;4.57;;;1.80;;
58354;SDS011;44160;49.080;19.302;2022-09-12T07:06:29;6.13;;;2.23;;
58354;SDS011;44160;49.080;19.302;2022-09-12T07:08:58;5.83;;;2.20;;
58354;SDS011;44160;49.080;19.302;2022-09-12T07:11:25;2.95;;;2.00;;
58354;SDS011;44160;49.080;19.302;2022-09-12T07:13:53;4.03;;;1.88;;
58354;SDS011;44160;49.080;19.302;2022-09-12T07:16:21;2.22;;;1.65;;
58354;SDS011;44160;49.080;19.302;2022-09-12T07:18:51;5.30;;;1.77;;
58354;SDS011;44160;49.080;19.302;2022-09-12T07:21:18;4.03;;;2.03;;
58354;SDS011;44160;49.080;19.302;2022-09-12T07:23:44;4.72;;;2.50;;
58354;SDS011;44160;49.080;19.302;2022-09-12T07:26:11;4.47;;;1.90;;
58354;SDS011;44160;49.080;19.302;2022-09-12T07:28:37;4.10;;;1.98;;
58354;SDS011;44160;49.080;19.302;2022-09-12T07:31:13;2.55;;;2.05;;
58354;SDS011;44160;49.080;19.302;2022-09-12T07:33:40;2.75;;;1.65;;
58354;SDS011;44160;49.080;19.302;2022-09-12T07:36:09;4.40;;;1.88;;
58354;SDS011;44160;49.080;19.302;2022-09-12T07:38:35;3.00;;;1.88;;
58354;SDS011;44160;49.080;19.302;2022-09-12T07:41:08;2.72;;;1.80;;
58354;SDS011;44160;49.080;19.302;2022-09-12T07:43:34;3.40;;;1.70;;
58354;SDS011;44160;49.080;19.302;2022-09-12T07:46:00;4.20;;;2.10;;
58354;SDS011;44160;49.080;19.302;2022-09-12T07:48:26;2.40;;;1.60;;
58354;SDS011;44160;49.080;19.302;2022-09-12T07:50:56;3.75;;;1.70;;
58354;SDS011;44160;49.080;19.302;2022-09-12T07:53:23;4.57;;;1.98;;
58354;SDS011;44160;49.080;19.302;2022-09-12T07:55:55;3.33;;;1.83;;
58354;SDS011;44160;49.080;19.302;2022-09-12T07:58:22;4.55;;;2.60;;
58354;SDS011;44160;49.080;19.302;2022-09-12T08:00:48;4.20;;;1.90;;
58354;SDS011;44160;49.080;19.302;2022-09-12T08:03:14;5.53;;;2.00;;
58354;SDS011;44160;49.080;19.302;2022-09-12T08:05:40;4.28;;;2.40;;
58354;SDS011;44160;49.080;19.302;2022-09-12T08:08:06;3.22;;;2.00;;
58354;SDS011;44160;49.080;19.302;2022-09-12T08:10:32;3.60;;;2.30;;
58354;SDS011;44160;49.080;19.302;2022-09-12T08:12:58;2.75;;;2.08;;
58354;SDS011;44160;49.080;19.302;2022-09-12T08:15:24;3.05;;;2.00;;
58354;SDS011;44160;49.080;19.302;2022-09-12T08:17:50;2.83;;;1.90;;
58354;SDS011;44160;49.080;19.302;2022-09-12T08:20:16;5.13;;;1.92;;
58354;SDS011;44160;49.080;19.302;2022-09-12T08:22:43;4.05;;;1.88;;
58354;SDS011;44160;49.080;19.302;2022-09-12T08:25:09;2.42;;;1.80;;
58354;SDS011;44160;49.080;19.302;2022-09-12T08:27:35;2.70;;;2.10;;
58354;SDS011;44160;49.080;19.302;2022-09-12T08:30:02;3.20;;;1.70;;
58354;SDS011;44160;49.080;19.302;2022-09-12T08:32:29;2.45;;;1.83;;
58354;SDS011;44160;49.080;19.302;2022-09-12T08:34:58;4.43;;;1.98;;
58354;SDS011;44160;49.080;19.302;2022-09-12T08:37:24;4.93;;;2.47;;
58354;SDS011;44160;49.080;19.302;2022-09-12T08:39:50;2.67;;;1.73;;
58354;SDS011;44160;49.080;19.302;2022-09-12T08:42:21;2.38;;;2.10;;
58354;SDS011;44160;49.080;19.302;2022-09-12T08:47:26;7.30;;;2.40;;
58354;SDS011;44160;49.080;19.302;2022-09-12T08:49:55;7.15;;;1.95;;
58354;SDS011;44160;49.080;19.302;2022-09-12T08:54:56;6.50;;;2.30;;
58354;SDS011;44160;49.080;19.302;2022-09-12T08:57:22;9.88;;;3.40;;
58354;SDS011;44160;49.080;19.302;2022-09-12T08:59:48;2.42;;;2.00;;
58354;SDS011;44160;49.080;19.302;2022-09-12T09:12:50;2.45;;;1.90;;
58354;SDS011;44160;49.080;19.302;2022-09-12T09:18:10;3.08;;;1.92;;
58354;SDS011;44160;49.080;19.302;2022-09-12T09:20:43;3.05;;;1.70;;
58354;SDS011;44160;49.080;19.302;2022-09-12T09:30:41;3.60;;;1.90;;
58354;SDS011;44160;49.080;19.302;2022-09-12T09:33:09;3.22;;;2.22;;
58354;SDS011;44160;49.080;19.302;2022-09-12T09:35:44;3.03;;;1.80;;
58354;SDS011;44160;49.080;19.302;2022-09-12T09:38:15;3.17;;;2.10;;
58354;SDS011;44160;49.080;19.302;2022-09-12T09:43:17;4.05;;;1.70;;
58354;SDS011;44160;49.080;19.302;2022-09-12T09:48:15;2.85;;;1.70;;
58354;SDS011;44160;49.080;19.302;2022-09-12T09:50:42;7.72;;;2.00;;
58354;SDS011;44160;49.080;19.302;2022-09-12T09:53:11;5.32;;;2.45;;
58354;SDS011;44160;49.080;19.302;2022-09-12T09:55:44;4.85;;;1.75;;
58354;SDS011;44160;49.080;19.302;2022-09-12T09:58:10;2.97;;;2.30;;
58354;SDS011;44160;49.080;19.302;2022-09-12T10:00:36;4.60;;;2.05;;
58354;SDS011;44160;49.080;19.302;2022-09-12T10:05:48;3.00;;;1.70;;
58354;SDS011;44160;49.080;19.302;2022-09-12T10:11:20;2.95;;;1.80;;
58354;SDS011;44160;49.080;19.302;2022-09-12T10:13:40;3.38;;;2.47;;
58354;SDS011;44160;49.080;19.302;2022-09-12T10:16:16;4.75;;;1.88;;
58354;SDS011;44160;49.080;19.302;2022-09-12T10:18:43;5.05;;;2.05;;
58354;SDS011;44160;49.080;19.302;2022-09-12T10:21:17;3.28;;;2.00;;
58354;SDS011;44160;49.080;19.302;2022-09-12T10:23:44;4.47;;;2.17;;
58354;SDS011;44160;49.080;19.302;2022-09-12T10:26:12;2.95;;;1.98;;
58354;SDS011;44160;49.080;19.302;2022-09-12T10:29:01;2.97;;;1.95;;
58354;SDS011;44160;49.080;19.302;2022-09-12T10:31:26;2.72;;;1.90;;
58354;SDS011;44160;49.080;19.302;2022-09-12T10:33:54;3.58;;;1.88;;
58354;SDS011;44160;49.080;19.302;2022-09-12T10:36:20;2.55;;;1.77;;
58354;SDS011;44160;49.080;19.302;2022-09-12T10:38:48;2.97;;;2.33;;
58354;SDS011;44160;49.080;19.302;2022-09-12T10:41:15;2.78;;;1.92;;
58354;SDS011;44160;49.080;19.302;2022-09-12T10:43:41;3.63;;;1.77;;
58354;SDS011;44160;49.080;19.302;2022-09-12T10:48:36;2.92;;;1.70;;
58354;SDS011;44160;49.080;19.302;2022-09-12T10:51:02;5.30;;;2.00;;
58354;SDS011;44160;49.080;19.302;2022-09-12T10:53:38;3.13;;;1.58;;
58354;SDS011;44160;49.080;19.302;2022-09-12T10:56:09;2.45;;;1.65;;
58354;SDS011;44160;49.080;19.302;2022-09-12T10:58:46;2.15;;;1.35;;
58354;SDS011;44160;49.080;19.302;2022-09-12T11:06:32;3.85;;;2.08;;
58354;SDS011;44160;49.080;19.302;2022-09-12T11:14:21;5.03;;;1.45;;
58354;SDS011;44160;49.080;19.302;2022-09-12T11:26:59;1.42;;;1.30;;
58354;SDS011;44160;49.080;19.302;2022-09-12T11:29:48;2.28;;;1.30;;
58354;SDS011;44160;49.080;19.302;2022-09-12T11:37:57;4.28;;;1.20;;
58354;SDS011;44160;49.080;19.302;2022-09-12T11:40:31;1.42;;;1.20;;
58354;SDS011;44160;49.080;19.302;2022-09-12T11:43:04;1.65;;;1.30;;
58354;SDS011;44160;49.080;19.302;2022-09-12T11:45:38;2.10;;;1.35;;
58354;SDS011;44160;49.080;19.302;2022-09-12T11:48:06;3.80;;;1.75;;
58354;SDS011;44160;49.080;19.302;2022-09-12T11:50:33;2.05;;;1.48;;
58354;SDS011;44160;49.080;19.302;2022-09-12T11:53:04;3.42;;;1.50;;
58354;SDS011;44160;49.080;19.302;2022-09-12T11:55:46;1.73;;;1.05;;
58354;SDS011;44160;49.080;19.302;2022-09-12T11:58:14;4.13;;;1.52;;
58354;SDS011;44160;49.080;19.302;2022-09-12T12:00:43;1.67;;;1.20;;
58354;SDS011;44160;49.080;19.302;2022-09-12T12:08:31;1.65;;;1.27;;
58354;SDS011;44160;49.080;19.302;2022-09-12T12:13:37;3.28;;;1.40;;
58354;SDS011;44160;49.080;19.302;2022-09-12T12:18:31;4.43;;;1.70;;
58354;SDS011;44160;49.080;19.302;2022-09-12T12:26:08;2.25;;;1.33;;
58354;SDS011;44160;49.080;19.302;2022-09-12T12:31:19;3.10;;;1.52;;
58354;SDS011;44160;49.080;19.302;2022-09-12T12:36:53;1.38;;;1.20;;
58354;SDS011;44160;49.080;19.302;2022-09-12T12:41:46;7.35;;;2.80;;
58354;SDS011;44160;49.080;19.302;2022-09-12T12:47:07;1.67;;;1.38;;
58354;SDS011;44160;49.080;19.302;2022-09-12T12:49:34;1.80;;;1.20;;
58354;SDS011;44160;49.080;19.302;2022-09-12T12:52:00;2.70;;;1.98;;
58354;SDS011;44160;49.080;19.302;2022-09-12T12:57:17;5.00;;;1.50;;
58354;SDS011;44160;49.080;19.302;2022-09-12T12:59:45;6.47;;;1.50;;
58354;SDS011;44160;49.080;19.302;2022-09-12T13:02:55;3.38;;;1.48;;
58354;SDS011;44160;49.080;19.302;2022-09-12T13:05:02;3.42;;;1.40;;
58354;SDS011;44160;49.080;19.302;2022-09-12T13:07:31;2.78;;;1.50;;
58354;SDS011;44160;49.080;19.302;2022-09-12T13:09:58;1.65;;;1.50;;
58354;SDS011;44160;49.080;19.302;2022-09-12T13:12:26;2.42;;;1.40;;
58354;SDS011;44160;49.080;19.302;2022-09-12T13:14:57;2.75;;;1.48;;
58354;SDS011;44160;49.080;19.302;2022-09-12T13:17:24;2.10;;;1.15;;
58354;SDS011;44160;49.080;19.302;2022-09-12T13:19:53;2.25;;;1.50;;
58354;SDS011;44160;49.080;19.302;2022-09-12T13:22:20;3.92;;;1.50;;
58354;SDS011;44160;49.080;19.302;2022-09-12T13:24:48;3.60;;;1.58;;
58354;SDS011;44160;49.080;19.302;2022-09-12T13:27:23;2.50;;;1.52;;
58354;SDS011;44160;49.080;19.302;2022-09-12T13:30:04;2.95;;;1.58;;
58354;SDS011;44160;49.080;19.302;2022-09-12T13:32:30;3.03;;;1.60;;
58354;SDS011;44160;49.080;19.302;2022-09-12T13:43:24;3.30;;;1.20;;
58354;SDS011;44160;49.080;19.302;2022-09-12T13:45:52;3.50;;;1.35;;
58354;SDS011;44160;49.080;19.302;2022-09-12T13:48:19;2.20;;;1.40;;
58354;SDS011;44160;49.080;19.302;2022-09-12T13:50:56;3.92;;;1.50;;
58354;SDS011;44160;49.080;19.302;2022-09-12T13:53:24;1.85;;;1.38;;
58354;SDS011;44160;49.080;19.302;2022-09-12T13:56:00;2.33;;;1.35;;
58354;SDS011;44160;49.080;19.302;2022-09-12T13:58:28;2.65;;;1.10;;
58354;SDS011;44160;49.080;19.302;2022-09-12T14:03:28;2.00;;;1.40;;
58354;SDS011;44160;49.080;19.302;2022-09-12T14:06:13;1.63;;;1.13;;
58354;SDS011;44160;49.080;19.302;2022-09-12T14:08:40;1.50;;;1.20;;
58354;SDS011;44160;49.080;19.302;2022-09-12T14:11:07;1.70;;;1.30;;
58354;SDS011;44160;49.080;19.302;2022-09-12T14:13:35;2.15;;;1.17;;
58354;SDS011;44160;49.080;19.302;2022-09-12T14:16:02;7.53;;;1.40;;
58354;SDS011;44160;49.080;19.302;2022-09-12T14:18:33;1.27;;;1.05;;
58354;SDS011;44160;49.080;19.302;2022-09-12T14:21:06;1.40;;;1.15;;
58354;SDS011;44160;49.080;19.302;2022-09-12T14:23:40;1.85;;;1.10;;
58354;SDS011;44160;49.080;19.302;2022-09-12T14:26:35;2.35;;;1.20;;
58354;SDS011;44160;49.080;19.302;2022-09-12T14:29:04;1.45;;;1.17;;
58354;SDS011;44160;49.080;19.302;2022-09-12T14:31:33;2.80;;;1.48;;
58354;SDS011;44160;49.080;19.302;2022-09-12T14:37:01;2.05;;;1.38;;
58354;SDS011;44160;49.080;19.302;2022-09-12T14:39:32;2.25;;;1.38;;
58354;SDS011;44160;49.080;19.302;2022-09-12T14:41:59;2.45;;;1.13;;
58354;SDS011;44160;49.080;19.302;2022-09-12T14:44:26;3.13;;;1.33;;
58354;SDS011;44160;49.080;19.302;2022-09-12T14:46:53;3.55;;;1.63;;
58354;SDS011;44160;49.080;19.302;2022-09-12T14:49:22;1.48;;;1.38;;
58354;SDS011;44160;49.080;19.302;2022-09-12T14:57:05;2.00;;;1.17;;
58354;SDS011;44160;49.080;19.302;2022-09-12T15:10:17;1.75;;;1.23;;
58354;SDS011;44160;49.080;19.302;2022-09-12T15:12:50;1.95;;;1.38;;
58354;SDS011;44160;49.080;19.302;2022-09-12T15:15:28;2.20;;;1.30;;
58354;SDS011;44160;49.080;19.302;2022-09-12T15:17:54;1.83;;;1.38;;
58354;SDS011;44160;49.080;19.302;2022-09-12T15:20:20;3.97;;;1.17;;
58354;SDS011;44160;49.080;19.302;2022-09-12T15:22:47;3.55;;;1.10;;
58354;SDS011;44160;49.080;19.302;2022-09-12T15:25:13;2.20;;;1.27;;
58354;SDS011;44160;49.080;19.302;2022-09-12T15:27:39;4.38;;;1.35;;
58354;SDS011;44160;49.080;19.302;2022-09-12T15:30:07;2.28;;;1.05;;
58354;SDS011;44160;49.080;19.302;2022-09-12T15:32:34;2.10;;;1.30;;
58354;SDS011;44160;49.080;19.302;2022-09-12T15:35:00;3.15;;;1.45;;
58354;SDS011;44160;49.080;19.302;2022-09-12T15:37:27;1.67;;;1.27;;
58354;SDS011;44160;49.080;19.302;2022-09-12T15:39:53;2.13;;;1.20;;
58354;SDS011;44160;49.080;19.302;2022-09-12T15:42:23;3.05;;;1.42;;
58354;SDS011;44160;49.080;19.302;2022-09-12T15:44:51;3.25;;;1.40;;
58354;SDS011;44160;49.080;19.302;2022-09-12T15:47:17;2.05;;;1.10;;
58354;SDS011;44160;49.080;19.302;2022-09-12T15:49:44;1.70;;;1.20;;
58354;SDS011;44160;49.080;19.302;2022-09-12T15:52:13;2.35;;;1.20;;
58354;SDS011;44160;49.080;19.302;2022-09-12T15:54:39;3.38;;;2.10;;
58354;SDS011;44160;49.080;19.302;2022-09-12T15:57:06;5.10;;;1.38;;
58354;SDS011;44160;49.080;19.302;2022-09-12T15:59:32;1.63;;;1.20;;
58354;SDS011;44160;49.080;19.302;2022-09-12T16:01:58;1.17;;;1.00;;
58354;SDS011;44160;49.080;19.302;2022-09-12T16:04:25;1.60;;;1.25;;
58354;SDS011;44160;49.080;19.302;2022-09-12T16:06:53;2.67;;;1.13;;
58354;SDS011;44160;49.080;19.302;2022-09-12T16:09:20;2.25;;;1.15;;
58354;SDS011;44160;49.080;19.302;2022-09-12T16:11:46;1.85;;;1.10;;
58354;SDS011;44160;49.080;19.302;2022-09-12T16:14:12;2.85;;;1.15;;
58354;SDS011;44160;49.080;19.302;2022-09-12T16:16:39;1.60;;;1.13;;
58354;SDS011;44160;49.080;19.302;2022-09-12T16:19:05;2.28;;;1.10;;
58354;SDS011;44160;49.080;19.302;2022-09-12T16:21:32;5.78;;;1.23;;
58354;SDS011;44160;49.080;19.302;2022-09-12T16:23:58;1.58;;;1.20;;
58354;SDS011;44160;49.080;19.302;2022-09-12T16:26:24;1.40;;;1.23;;
58354;SDS011;44160;49.080;19.302;2022-09-12T16:28:57;1.90;;;1.23;;
58354;SDS011;44160;49.080;19.302;2022-09-12T16:31:23;2.10;;;1.65;;
58354;SDS011;44160;49.080;19.302;2022-09-12T16:33:49;1.77;;;1.33;;
58354;SDS011;44160;49.080;19.302;2022-09-12T16:36:17;1.92;;;1.38;;
58354;SDS011;44160;49.080;19.302;2022-09-12T16:38:44;1.52;;;1.00;;
58354;SDS011;44160;49.080;19.302;2022-09-12T16:41:11;3.42;;;2.22;;
58354;SDS011;44160;49.080;19.302;2022-09-12T16:43:38;4.43;;;1.52;;
58354;SDS011;44160;49.080;19.302;2022-09-12T16:46:05;3.38;;;1.48;;
58354;SDS011;44160;49.080;19.302;2022-09-12T16:48:32;6.90;;;3.75;;
58354;SDS011;44160;49.080;19.302;2022-09-12T16:50:58;4.00;;;1.60;;
58354;SDS011;44160;49.080;19.302;2022-09-12T16:53:31;2.13;;;1.40;;
58354;SDS011;44160;49.080;19.302;2022-09-12T16:55:58;3.03;;;1.70;;
58354;SDS011;44160;49.080;19.302;2022-09-12T16:58:24;2.65;;;1.48;;
58354;SDS011;44160;49.080;19.302;2022-09-12T17:00:59;3.75;;;1.88;;
58354;SDS011;44160;49.080;19.302;2022-09-12T17:03:26;6.75;;;1.63;;
58354;SDS011;44160;49.080;19.302;2022-09-12T17:05:56;2.85;;;1.70;;
58354;SDS011;44160;49.080;19.302;2022-09-12T17:08:22;3.30;;;2.38;;
58354;SDS011;44160;49.080;19.302;2022-09-12T17:10:48;2.58;;;1.80;;
58354;SDS011;44160;49.080;19.302;2022-09-12T17:13:14;2.25;;;1.55;;
58354;SDS011;44160;49.080;19.302;2022-09-12T17:15:40;2.55;;;1.52;;
58354;SDS011;44160;49.080;19.302;2022-09-12T17:18:07;3.65;;;1.80;;
58354;SDS011;44160;49.080;19.302;2022-09-12T17:20:34;2.80;;;1.60;;
58354;SDS011;44160;49.080;19.302;2022-09-12T17:23:00;4.75;;;2.22;;
58354;SDS011;44160;49.080;19.302;2022-09-12T17:25:26;3.50;;;1.90;;
58354;SDS011;44160;49.080;19.302;2022-09-12T17:27:52;1.65;;;1.40;;
58354;SDS011;44160;49.080;19.302;2022-09-12T17:30:18;2.85;;;1.75;;
58354;SDS011;44160;49.080;19.302;2022-09-12T17:32:44;6.05;;;1.67;;
58354;SDS011;44160;49.080;19.302;2022-09-12T17:35:10;2.60;;;1.70;;
58354;SDS011;44160;49.080;19.302;2022-09-12T17:37:37;2.33;;;1.60;;
58354;SDS011;44160;49.080;19.302;2022-09-12T17:40:03;4.20;;;1.75;;
58354;SDS011;44160;49.080;19.302;2022-09-12T17:42:29;2.35;;;1.40;;